Franklin, Indiana
Current Conditions -  °F | °C
As of 6:14 AM on Thursday 23 Oct 2014 (Local Time) from KGEZ Reporting Station
Haze Haze  
Wind Chill: 30°   Ceiling: Unl
Heat Index: 34°   Visibility: 1.2mi
Dew Point: 32°   Wind: 5mph
Humidity: 92%   Direction: 70°ENE
Pressure: 30.26"   Gusts: NA
Location:  39.48°N, 86.06°W
Report Text: KGEZ 231014Z AUTO 07004KT 1 1/4SM BR FEW002 01/00 A3026 RMK AO2 T00110000
Loading
Personal Weather Stations






























Interactive Weather Map New forecast layout! Learn more

10-Day Weather Forecast

Advertisements
Track Severe Weather on mobile